Time;durP1;ratioP1;P1;durP2;ratioP2;P2;SDS_P1;SDS_P2;PMS_P1;PMS_P2;Temp;Humidity;BMP_temperature;BMP_pressure;BME280_temperature;BME280_humidity;BME280_pressure;Samples;Min_cycle;Max_cycle;Signal;HPM_P1;HPM_P2
2022/10/15 00:02:06;;;;;;;43.70;23.40;;;;;;;9.40;100.00;99260.34;100737;1342;25488;-35
2022/10/15 00:04:32;;;;;;;62.70;27.80;;;;;;;9.40;100.00;99251.22;100755;1331;22521;-35
2022/10/15 00:06:58;;;;;;;60.80;25.10;;;;;;;9.38;100.00;99252.58;100684;1341;23232;-35
2022/10/15 00:09:23;;;;;;;47.10;25.30;;;;;;;9.36;100.00;99253.46;100833;1331;23244;-41
2022/10/15 00:11:49;;;;;;;26.70;16.00;;;;;;;9.35;100.00;99261.78;100799;1341;22993;-32
2022/10/15 00:14:14;;;;;;;47.10;24.00;;;;;;;9.32;100.00;99259.54;100694;1342;22671;-36
2022/10/15 00:16:40;;;;;;;58.90;29.20;;;;;;;9.28;100.00;99253.55;100397;1342;22881;-33
2022/10/15 00:19:05;;;;;;;62.10;30.40;;;;;;;9.23;100.00;99249.55;100724;1341;24430;-32
2022/10/15 00:21:31;;;;;;;55.10;23.60;;;;;;;9.16;100.00;99248.81;100640;1342;23408;-34
2022/10/15 00:23:56;;;;;;;74.90;27.00;;;;;;;9.11;100.00;99254.99;100658;1334;25518;-36
2022/10/15 00:26:24;;;;;;;52.80;25.00;;;;;;;9.05;100.00;99254.40;100678;1342;24392;-32
2022/10/15 00:28:50;;;;;;;57.30;28.80;;;;;;;9.00;100.00;99255.24;100675;1340;22832;-32
2022/10/15 00:31:17;;;;;;;49.40;24.30;;;;;;;8.97;100.00;99254.64;100731;1337;25291;-35
2022/10/15 00:33:43;;;;;;;62.20;26.70;;;;;;;8.92;100.00;99246.34;100590;1334;22714;-32
2022/10/15 00:36:12;;;;;;;71.40;30.20;;;;;;;8.88;100.00;99245.89;100873;1332;22784;-38
2022/10/15 00:38:37;;;;;;;49.90;27.00;;;;;;;8.83;100.00;99245.80;100723;1341;24839;-32
2022/10/15 00:41:04;;;;;;;59.10;29.60;;;;;;;8.77;100.00;99245.89;100768;1342;25132;-35
2022/10/15 00:43:43;;;;;;;74.50;26.00;;;;;;;8.73;100.00;99233.58;100683;1331;24379;-33
2022/10/15 00:46:16;;;;;;;58.10;27.50;;;;;;;8.69;100.00;99242.46;100793;1341;25584;-35
2022/10/15 00:48:41;;;;;;;57.10;27.10;;;;;;;8.64;100.00;99249.52;100794;1342;22513;-32
2022/10/15 00:51:07;;;;;;;52.90;25.60;;;;;;;8.60;100.00;99250.39;100698;1334;22783;-32
2022/10/15 00:53:32;;;;;;;55.10;25.80;;;;;;;8.54;100.00;99251.14;100503;1334;23207;-32
2022/10/15 00:55:58;;;;;;;45.40;25.10;;;;;;;8.49;100.00;99250.84;100532;1341;22764;-36
2022/10/15 00:58:27;;;;;;;60.30;25.30;;;;;;;8.43;100.00;99243.72;100669;1340;23017;-36
2022/10/15 01:00:53;;;;;;;51.00;24.40;;;;;;;8.36;100.00;99235.86;100724;1339;23214;-32
2022/10/15 01:03:19;;;;;;;50.60;22.10;;;;;;;8.32;100.00;99233.62;100508;1342;23116;-33
2022/10/15 01:05:46;;;;;;;62.70;27.60;;;;;;;8.28;100.00;99228.25;100630;1334;23105;-34
2022/10/15 01:08:12;;;;;;;68.60;30.90;;;;;;;8.22;100.00;99229.08;100779;1331;23223;-33
2022/10/15 01:10:46;;;;;;;57.10;23.60;;;;;;;8.17;100.00;99229.91;100792;1342;23097;-35
2022/10/15 01:13:15;;;;;;;37.60;20.70;;;;;;;8.11;100.00;99233.84;100749;1342;22503;-31
2022/10/15 01:15:42;;;;;;;41.30;17.10;;;;;;;8.04;100.00;99233.81;100707;1332;23233;-32
2022/10/15 01:18:13;;;;;;;44.60;22.40;;;;;;;7.99;100.00;99227.58;100637;1340;24379;-31
2022/10/15 01:20:43;;;;;;;35.30;17.10;;;;;;;7.93;100.00;99222.77;100705;1341;22872;-35
2022/10/15 01:23:12;;;;;;;25.10;15.20;;;;;;;7.87;100.00;99227.60;100617;1339;23060;-35
2022/10/15 01:25:40;;;;;;;52.00;21.70;;;;;;;7.81;100.00;99233.69;100843;1340;22843;-37
2022/10/15 01:28:29;;;;;;;29.70;14.60;;;;;;;7.76;100.00;99236.73;100756;1339;22875;-33
2022/10/15 01:30:58;;;;;;;49.20;25.00;;;;;;;7.72;100.00;99234.91;100681;1334;23368;-33
2022/10/15 01:33:29;;;;;;;56.00;24.10;;;;;;;7.66;100.00;99230.58;100655;1342;24299;-33
2022/10/15 01:36:19;;;;;;;67.70;30.30;;;;;;;7.59;100.00;99229.12;100812;1340;22748;-33
2022/10/15 01:38:51;;;;;;;75.40;29.20;;;;;;;7.54;100.00;99214.93;100786;1341;23100;-37
2022/10/15 01:41:20;;;;;;;73.90;32.10;;;;;;;7.56;100.00;99208.46;100704;1341;22911;-32
2022/10/15 01:43:50;;;;;;;55.10;26.90;;;;;;;7.60;100.00;99204.99;100791;1341;23011;-32
2022/10/15 01:46:20;;;;;;;63.30;28.90;;;;;;;7.59;100.00;99202.73;100615;1340;22770;-36
2022/10/15 01:48:46;;;;;;;83.90;27.00;;;;;;;7.61;100.00;99207.34;100697;1317;22712;-35
2022/10/15 01:51:12;;;;;;;85.00;32.60;;;;;;;7.62;100.00;99207.91;100702;1334;23192;-32
2022/10/15 01:53:37;;;;;;;54.40;23.10;;;;;;;7.63;100.00;99214.65;100775;1325;24485;-35
2022/10/15 01:56:07;;;;;;;52.40;24.60;;;;;;;7.62;100.00;99212.02;100697;1329;22770;-33
2022/10/15 01:58:32;;;;;;;90.40;32.50;;;;;;;7.61;100.00;99211.96;100761;1331;22799;-34
2022/10/15 02:00:58;;;;;;;106.10;36.20;;;;;;;7.57;100.00;99206.92;100711;1342;24348;-37
2022/10/15 02:03:24;;;;;;;91.80;31.00;;;;;;;7.53;100.00;99197.77;100709;1342;23102;-36
2022/10/15 02:05:54;;;;;;;85.80;32.50;;;;;;;7.48;100.00;99196.77;100766;1340;24399;-37
2022/10/15 02:08:23;;;;;;;100.30;32.90;;;;;;;7.43;100.00;99192.02;100731;1332;22748;-32
2022/10/15 02:10:53;;;;;;;85.00;32.40;;;;;;;7.38;100.00;99184.98;100750;1341;22761;-35
2022/10/15 02:13:26;;;;;;;100.30;28.90;;;;;;;7.33;100.00;99184.30;100696;1331;24337;-35
2022/10/15 02:16:02;;;;;;;77.30;29.80;;;;;;;7.28;100.00;99175.76;100740;1342;24331;-36
2022/10/15 02:18:30;;;;;;;73.10;31.90;;;;;;;7.22;100.00;99176.28;100726;1330;25284;-36
2022/10/15 02:21:00;;;;;;;85.70;35.50;;;;;;;7.15;100.00;99179.98;100608;1340;23014;-32
2022/10/15 02:23:31;;;;;;;82.60;30.90;;;;;;;7.09;100.00;99178.35;100581;1341;22526;-37
2022/10/15 02:25:56;;;;;;;83.40;31.10;;;;;;;7.05;100.00;99178.13;100857;1331;22513;-37
2022/10/15 02:28:22;;;;;;;61.20;25.70;;;;;;;7.00;100.00;99173.92;100704;1342;23335;-33
2022/10/15 02:30:48;;;;;;;63.90;26.80;;;;;;;6.95;100.00;99167.52;100549;1334;24369;-31
2022/10/15 02:33:14;;;;;;;53.60;25.60;;;;;;;6.91;100.00;99163.92;100707;1341;22840;-31
2022/10/15 02:35:40;;;;;;;;;;;;;;;6.89;100.00;99172.21;100752;1331;22483;-32
2022/10/15 02:38:06;;;;;;;78.30;24.60;;;;;;;6.86;100.00;99170.60;100661;1331;22762;-34
2022/10/15 02:40:32;;;;;;;53.50;20.20;;;;;;;6.82;100.00;99160.72;100725;1331;22770;-31
2022/10/15 02:42:58;;;;;;;72.10;30.30;;;;;;;6.80;100.00;99159.02;100773;1341;24542;-34
2022/10/15 02:45:24;;;;;;;55.70;22.30;;;;;;;6.78;100.00;99158.71;100692;1340;23343;-35
2022/10/15 02:47:49;;;;;;;59.60;25.20;;;;;;;6.77;100.00;99158.37;100557;1334;24378;-32
2022/10/15 02:50:15;;;;;;;80.40;31.90;;;;;;;6.78;100.00;99152.10;100708;1342;23063;-35
2022/10/15 02:52:40;;;;;;;49.10;21.00;;;;;;;6.76;100.00;99148.17;100759;1342;23230;-36
2022/10/15 02:55:06;;;;;;;57.10;26.60;;;;;;;6.74;100.00;99144.89;100570;1342;24562;-37
2022/10/15 02:57:32;;;;;;;51.70;22.90;;;;;;;6.70;100.00;99145.96;100635;1341;23121;-35
2022/10/15 02:59:57;;;;;;;53.80;23.40;;;;;;;6.64;100.00;99145.52;100692;1334;22760;-35
2022/10/15 03:02:23;;;;;;;77.10;29.80;;;;;;;6.59;100.00;99146.13;100763;1341;23090;-35
2022/10/15 03:04:48;;;;;;;60.00;27.10;;;;;;;6.55;100.00;99135.52;100728;1342;23223;-31
2022/10/15 03:07:14;;;;;;;62.80;26.70;;;;;;;6.57;100.00;99121.86;100571;1340;23060;-35
2022/10/15 03:09:39;;;;;;;47.70;23.50;;;;;;;6.60;100.00;99111.63;100636;1334;23120;-31
2022/10/15 03:12:05;;;;;;;48.80;21.80;;;;;;;6.61;100.00;99115.53;100710;1342;22516;-35
2022/10/15 03:14:31;;;;;;;67.40;30.20;;;;;;;6.59;100.00;99118.63;100717;1341;23546;-33
2022/10/15 03:16:56;;;;;;;54.00;20.70;;;;;;;6.58;100.00;99110.35;100734;1334;24431;-33
2022/10/15 03:19:22;;;;;;;52.70;22.70;;;;;;;6.59;100.00;99111.58;100801;1340;24372;-41
2022/10/15 03:21:47;;;;;;;72.10;27.70;;;;;;;6.62;100.00;99107.15;100655;1340;24877;-32
2022/10/15 03:24:13;;;;;;;48.90;23.10;;;;;;;6.67;100.00;99103.61;100736;1332;22907;-33
2022/10/15 03:26:38;;;;;;;59.20;25.10;;;;;;;6.71;100.00;99105.79;100584;1340;22892;-36
2022/10/15 03:29:04;;;;;;;44.50;20.30;;;;;;;6.77;100.00;99111.67;100711;1341;22747;-33
2022/10/15 03:31:30;;;;;;;46.20;19.60;;;;;;;6.82;100.00;99115.73;100689;1340;22962;-37
2022/10/15 03:33:55;;;;;;;46.70;18.90;;;;;;;6.89;100.00;99118.90;100561;1342;23086;-34
2022/10/15 03:36:21;;;;;;;46.40;21.20;;;;;;;6.95;100.00;99120.03;100710;1325;24794;-36
2022/10/15 03:38:46;;;;;;;42.90;19.90;;;;;;;7.03;100.00;99125.01;100672;1342;25377;-33
2022/10/15 03:41:12;;;;;;;59.90;22.40;;;;;;;7.11;100.00;99126.54;100788;1334;25037;-33
2022/10/15 03:43:38;;;;;;;48.10;22.40;;;;;;;7.22;100.00;99138.80;100828;1341;25062;-36
2022/10/15 03:46:04;;;;;;;30.10;15.20;;;;;;;7.29;100.00;99143.64;100713;1331;24379;-33
2022/10/15 03:48:29;;;;;;;38.10;16.70;;;;;;;7.38;100.00;99144.09;100749;1332;22720;-33
2022/10/15 03:50:55;;;;;;;33.20;15.30;;;;;;;7.47;100.00;99150.89;100716;1331;22503;-33
2022/10/15 03:53:21;;;;;;;40.90;19.00;;;;;;;7.53;100.00;99161.77;100729;1334;23101;-36
2022/10/15 03:55:47;;;;;;;71.60;25.10;;;;;;;7.61;100.00;99168.98;100871;1342;23319;-36
2022/10/15 03:58:12;;;;;;;63.50;23.40;;;;;;;7.70;100.00;99172.04;100735;1331;24380;-36
2022/10/15 04:00:41;;;;;;;48.50;17.60;;;;;;;7.80;100.00;99173.00;100670;1334;24379;-36
2022/10/15 04:03:07;;;;;;;65.40;23.90;;;;;;;7.86;100.00;99178.19;100874;1342;22712;-33
2022/10/15 04:05:32;;;;;;;79.70;30.10;;;;;;;7.93;100.00;99181.74;100584;1340;24417;-33
2022/10/15 04:07:58;;;;;;;59.80;24.20;;;;;;;8.01;100.00;99178.52;100747;1342;23269;-41
2022/10/15 04:10:24;;;;;;;81.60;28.40;;;;;;;8.08;100.00;99171.77;100710;1340;24433;-39
2022/10/15 04:12:49;;;;;;;52.70;23.70;;;;;;;8.14;100.00;99172.77;100730;1330;22710;-36
2022/10/15 04:15:15;;;;;;;56.70;25.00;;;;;;;8.19;100.00;99161.02;100699;1334;22792;-33
2022/10/15 04:17:40;;;;;;;74.00;26.30;;;;;;;8.22;100.00;99156.55;100762;1339;23214;-33
2022/10/15 04:20:07;;;;;;;63.50;23.90;;;;;;;8.25;100.00;99150.95;100649;1334;22871;-36
2022/10/15 04:22:32;;;;;;;50.90;20.90;;;;;;;8.30;100.00;99146.61;100704;1332;24374;-36
2022/10/15 04:24:58;;;;;;;49.20;22.10;;;;;;;8.36;100.00;99150.33;100698;1340;23086;-36
2022/10/15 04:27:23;;;;;;;56.50;22.40;;;;;;;8.45;100.00;99146.81;100723;1326;22885;-33
2022/10/15 04:29:49;;;;;;;52.90;22.40;;;;;;;8.50;100.00;99148.31;100721;1342;24494;-33
2022/10/15 04:32:15;;;;;;;50.90;21.70;;;;;;;8.56;100.00;99147.02;100715;1341;24379;-35
2022/10/15 04:34:40;;;;;;;40.10;17.60;;;;;;;8.61;100.00;99140.97;100655;1339;22561;-34
2022/10/15 04:37:06;;;;;;;64.90;27.30;;;;;;;8.67;100.00;99135.51;100493;1340;366445;-33
2022/10/15 04:39:32;;;;;;;53.20;21.90;;;;;;;8.72;100.00;99134.73;100740;1332;22721;-33
2022/10/15 04:41:59;;;;;;;72.90;27.10;;;;;;;8.74;100.00;99132.59;100569;1340;24338;-33
2022/10/15 04:44:24;;;;;;;51.40;22.90;;;;;;;8.76;100.00;99133.22;100763;1342;22711;-36
2022/10/15 04:46:50;;;;;;;58.00;27.00;;;;;;;8.77;100.00;99136.52;100778;1341;23247;-33
2022/10/15 04:49:15;;;;;;;39.80;19.10;;;;;;;8.79;100.00;99136.63;100678;1340;25570;-33
2022/10/15 04:51:41;;;;;;;42.50;20.10;;;;;;;8.81;100.00;99130.70;100707;1340;26476;-33
2022/10/15 04:54:06;;;;;;;53.90;25.90;;;;;;;8.84;100.00;99131.48;100562;1340;23211;-36
2022/10/15 04:56:32;;;;;;;55.60;24.50;;;;;;;8.88;100.00;99129.58;100726;1337;25499;-37
2022/10/15 04:58:57;;;;;;;52.00;24.00;;;;;;;8.94;100.00;99122.01;100811;1337;25039;-34
2022/10/15 05:01:23;;;;;;;58.30;28.60;;;;;;;8.97;100.00;99121.34;100501;1340;25355;-33
2022/10/15 05:03:48;;;;;;;79.90;29.90;;;;;;;9.02;100.00;99123.36;100752;1340;24484;-40
2022/10/15 05:06:16;;;;;;;41.50;22.00;;;;;;;9.09;100.00;99122.75;100713;1340;22872;-33
2022/10/15 05:08:42;;;;;;;61.30;27.10;;;;;;;9.13;100.00;99122.76;100636;1342;22884;-36
2022/10/15 05:11:09;;;;;;;51.00;27.00;;;;;;;9.18;100.00;99121.80;100707;1342;24107;-36
2022/10/15 05:13:35;;;;;;;70.20;26.70;;;;;;;9.21;100.00;99119.35;100512;1337;23086;-36
2022/10/15 05:16:18;;;;;;;43.70;23.70;;;;;;;9.25;100.00;99122.96;100711;1342;22745;-37
2022/10/15 05:18:46;;;;;;;63.40;30.50;;;;;;;9.30;100.00;99121.77;100710;1331;22715;-35
2022/10/15 05:21:13;;;;;;;73.80;31.90;;;;;;;9.36;100.00;99115.50;100741;1326;22560;-35
2022/10/15 05:23:38;;;;;;;78.70;31.20;;;;;;;9.45;100.00;99106.19;100743;1333;23022;-35
2022/10/15 05:26:06;;;;;;;50.90;26.30;;;;;;;9.51;100.00;99105.91;100760;1342;22796;-36
2022/10/15 05:28:31;;;;;;;78.20;32.00;;;;;;;9.57;100.00;99105.32;100708;1323;22874;-32
2022/10/15 05:31:03;;;;;;;51.80;25.90;;;;;;;9.66;100.00;99101.66;100682;1339;22880;-36
2022/10/15 05:33:29;;;;;;;74.30;31.40;;;;;;;9.71;100.00;99095.63;100788;1339;24097;-33
2022/10/15 05:35:54;;;;;;;43.90;18.80;;;;;;;9.75;100.00;99088.88;100787;1338;22580;-36
2022/10/15 05:38:20;;;;;;;64.20;30.30;;;;;;;9.80;100.00;99083.25;100733;1339;22775;-33
2022/10/15 05:40:48;;;;;;;77.50;28.20;;;;;;;9.84;100.00;99083.97;100742;1334;22732;-34
2022/10/15 05:43:13;;;;;;;52.80;26.00;;;;;;;9.86;100.00;99091.25;100905;1331;22736;-35
2022/10/15 05:45:39;;;;;;;77.00;32.70;;;;;;;9.87;100.00;99088.60;100794;1339;22631;-36
2022/10/15 05:48:04;;;;;;;71.60;35.60;;;;;;;9.91;100.00;99084.16;100703;1331;24902;-36
2022/10/15 05:50:30;;;;;;;56.60;26.70;;;;;;;9.96;100.00;99087.02;100654;1324;22504;-36
2022/10/15 05:52:55;;;;;;;55.50;25.70;;;;;;;10.02;100.00;99094.45;100706;1331;22933;-33
2022/10/15 05:55:21;;;;;;;74.70;31.50;;;;;;;10.11;100.00;99093.58;100710;1339;22926;-36
2022/10/15 05:57:46;;;;;;;54.80;27.60;;;;;;;10.16;100.00;99094.29;100681;1339;22742;-36
2022/10/15 06:00:13;;;;;;;63.10;32.40;;;;;;;10.14;100.00;99089.65;100678;1333;22485;-32
2022/10/15 06:02:39;;;;;;;56.40;30.40;;;;;;;10.14;100.00;99084.76;100781;1331;22505;-36
2022/10/15 06:05:05;;;;;;;40.70;22.30;;;;;;;10.14;100.00;99084.29;100680;1338;22499;-36
2022/10/15 06:07:31;;;;;;;48.10;24.70;;;;;;;10.14;100.00;99082.18;100776;1337;22754;-33
2022/10/15 06:09:57;;;;;;;65.80;33.70;;;;;;;10.18;100.00;99079.27;100765;1339;22723;-36
2022/10/15 06:12:22;;;;;;;60.00;27.60;;;;;;;10.16;100.00;99081.04;100672;1334;23221;-36
2022/10/15 06:14:48;;;;;;;50.30;26.80;;;;;;;10.20;100.00;99084.30;100702;1331;23051;-36
2022/10/15 06:17:13;;;;;;;52.10;28.50;;;;;;;10.21;100.00;99086.13;100757;1339;23603;-34
2022/10/15 06:19:39;;;;;;;49.10;23.60;;;;;;;10.26;100.00;99088.61;100809;1339;25355;-36
2022/10/15 06:22:05;;;;;;;70.40;28.00;;;;;;;10.30;100.00;99087.09;100751;1339;23335;-36
2022/10/15 06:24:31;;;;;;;49.30;24.10;;;;;;;10.40;100.00;99090.42;100705;1339;22890;-33
2022/10/15 06:26:58;;;;;;;42.50;21.70;;;;;;;10.54;100.00;99083.77;100811;1331;22849;-36
2022/10/15 06:29:24;;;;;;;56.10;29.40;;;;;;;10.67;100.00;99077.88;100792;1332;22527;-33
2022/10/15 06:31:49;;;;;;;50.70;23.90;;;;;;;10.86;100.00;99082.64;100747;1331;24279;-34
2022/10/15 06:34:15;;;;;;;48.00;25.80;;;;;;;11.06;100.00;99077.43;100717;1337;24887;-34
2022/10/15 06:36:40;;;;;;;55.40;26.10;;;;;;;11.33;100.00;99071.98;100755;1336;23188;-34
2022/10/15 06:39:06;;;;;;;46.10;26.20;;;;;;;11.55;100.00;99065.89;100717;1331;25358;-37
2022/10/15 06:41:31;;;;;;;40.80;19.70;;;;;;;11.77;100.00;99064.80;100720;1327;22786;-38
2022/10/15 06:43:57;;;;;;;55.60;26.00;;;;;;;12.04;100.00;99061.11;100836;1339;22596;-33
2022/10/15 06:46:22;;;;;;;41.20;20.70;;;;;;;12.23;100.00;99061.77;100719;1339;23081;-34
2022/10/15 06:48:50;;;;;;;44.30;25.60;;;;;;;12.36;100.00;99050.34;100772;1339;22512;-35
2022/10/15 06:51:16;;;;;;;35.30;22.20;;;;;;;12.46;100.00;99039.47;100795;1339;22505;-34
2022/10/15 06:53:42;;;;;;;33.70;21.30;;;;;;;12.49;100.00;99023.56;100761;1331;22767;-34
2022/10/15 06:56:08;;;;;;;30.50;21.20;;;;;;;12.54;100.00;99014.80;100728;1339;22502;-37
2022/10/15 06:58:34;;;;;;;33.00;20.40;;;;;;;12.55;100.00;99005.79;100731;1339;22497;-34
2022/10/15 07:01:01;;;;;;;46.20;24.90;;;;;;;12.60;100.00;98999.09;100397;1339;26592;-37
2022/10/15 07:03:27;;;;;;;47.80;25.50;;;;;;;12.68;100.00;98991.60;100798;1339;22759;-35
2022/10/15 07:05:53;;;;;;;29.40;18.80;;;;;;;12.71;100.00;98993.20;100824;1339;22660;-34
2022/10/15 07:08:18;;;;;;;37.00;23.10;;;;;;;12.71;100.00;98995.59;100802;1339;24229;-34
2022/10/15 07:10:44;;;;;;;37.70;21.80;;;;;;;12.71;100.00;98997.58;100745;1331;25399;-34
2022/10/15 07:13:10;;;;;;;36.10;20.60;;;;;;;12.73;100.00;98995.00;100840;1339;22494;-33
2022/10/15 07:15:35;;;;;;;30.90;17.70;;;;;;;12.74;100.00;98998.91;100760;1324;23110;-36
2022/10/15 07:18:01;;;;;;;38.50;25.90;;;;;;;12.77;100.00;98994.24;100748;1339;22875;-35
2022/10/15 07:20:28;;;;;;;39.80;20.80;;;;;;;12.77;100.00;99001.42;100782;1330;22508;-33
2022/10/15 07:22:56;;;;;;;30.30;20.40;;;;;;;12.79;100.00;98999.29;100779;1339;23008;-34
2022/10/15 07:25:22;;;;;;;41.00;24.10;;;;;;;12.80;100.00;99007.23;100687;1334;23138;-34
2022/10/15 07:27:47;;;;;;;32.90;21.70;;;;;;;12.84;100.00;99009.98;100730;1339;22753;-34
2022/10/15 07:30:13;;;;;;;33.40;21.00;;;;;;;12.86;100.00;99015.95;100715;1331;22984;-37
2022/10/15 07:32:39;;;;;;;34.20;21.40;;;;;;;12.93;100.00;99011.77;100704;1331;22574;-37
2022/10/15 07:35:05;;;;;;;38.40;20.20;;;;;;;12.95;100.00;99017.90;100755;1324;24155;-33
2022/10/15 07:37:32;;;;;;;37.90;23.90;;;;;;;12.95;100.00;99018.88;100808;1334;22748;-33
2022/10/15 07:39:58;;;;;;;46.30;22.90;;;;;;;13.04;100.00;99010.27;100718;1339;22526;-32
2022/10/15 07:42:24;;;;;;;38.60;23.50;;;;;;;13.06;100.00;99012.15;100666;1334;22745;-35
2022/10/15 07:44:50;;;;;;;35.10;21.90;;;;;;;13.03;100.00;99012.51;100858;1339;22509;-38
2022/10/15 07:54:05;;;;;;;33.30;22.20;;;;;;;13.18;100.00;99007.23;100066;1343;545052;-33
2022/10/15 07:56:30;;;;;;;26.90;19.50;;;;;;;13.20;100.00;99010.10;100436;1345;23238;-36
2022/10/15 07:58:56;;;;;;;29.40;17.60;;;;;;;13.34;100.00;99011.03;100434;1345;24867;-33
2022/10/15 08:01:21;;;;;;;38.40;25.30;;;;;;;13.34;100.00;99015.10;100360;1344;23132;-33
2022/10/15 08:03:47;;;;;;;31.40;19.50;;;;;;;13.44;100.00;99013.50;100370;1339;22533;-35
2022/10/15 08:06:13;;;;;;;27.70;17.20;;;;;;;13.52;100.00;99017.84;100318;1336;23316;-35
2022/10/15 08:08:38;;;;;;;31.70;20.00;;;;;;;13.59;100.00;99017.48;100212;1345;380453;-40
2022/10/15 08:11:05;;;;;;;32.90;19.30;;;;;;;13.67;100.00;99018.09;100514;1345;22850;-35
2022/10/15 08:13:31;;;;;;;33.60;20.20;;;;;;;13.74;100.00;99021.07;100509;1344;22763;-35
2022/10/15 08:15:57;;;;;;;30.10;20.60;;;;;;;13.84;100.00;99022.04;100449;1344;22750;-38
2022/10/15 08:18:22;;;;;;;29.20;18.70;;;;;;;13.91;100.00;99026.35;100377;1345;24364;-35
2022/10/15 08:20:48;;;;;;;37.00;19.20;;;;;;;13.98;100.00;99026.21;100647;1341;22815;-38
2022/10/15 08:23:15;;;;;;;31.90;19.50;;;;;;;13.94;100.00;99026.80;100686;1327;23103;-38
2022/10/15 08:25:41;;;;;;;31.80;17.70;;;;;;;13.96;100.00;99024.88;100570;1342;22631;-35
2022/10/15 08:28:08;;;;;;;31.10;20.50;;;;;;;14.03;100.00;99025.12;100640;1337;23001;-35
2022/10/15 08:30:34;;;;;;;25.80;17.80;;;;;;;14.04;100.00;99023.85;100683;1341;22627;-35
2022/10/15 08:33:00;;;;;;;40.10;21.30;;;;;;;14.10;100.00;99023.45;100674;1343;22535;-35
2022/10/15 08:35:26;;;;;;;33.30;18.70;;;;;;;14.16;100.00;99030.91;100689;1337;23087;-42
2022/10/15 08:37:53;;;;;;;33.10;18.50;;;;;;;14.16;100.00;99034.21;100490;1342;24377;-35
2022/10/15 08:40:20;;;;;;;24.40;18.50;;;;;;;14.13;100.00;99037.20;100700;1341;24044;-35
2022/10/15 08:42:47;;;;;;;28.90;18.10;;;;;;;14.13;100.00;99040.85;100671;1334;23071;-33
2022/10/15 08:45:16;;;;;;;42.80;18.60;;;;;;;14.13;100.00;99044.46;100659;1341;23100;-37
2022/10/15 08:47:45;;;;;;;24.70;15.30;;;;;;;14.17;100.00;99040.46;100706;1345;22506;-34
2022/10/15 08:50:24;;;;;;;37.10;19.60;;;;;;;14.27;100.00;99039.25;100697;1335;24046;-37
2022/10/15 08:52:50;;;;;;;30.00;18.10;;;;;;;14.36;99.99;99033.80;100631;1340;23224;-34
2022/10/15 08:55:17;;;;;;;42.20;19.30;;;;;;;14.47;99.48;99040.39;100615;1334;22761;-34
2022/10/15 08:57:45;;;;;;;31.60;20.40;;;;;;;14.58;98.75;99035.34;100701;1335;24382;-33
2022/10/15 09:00:15;;;;;;;26.90;15.80;;;;;;;14.71;98.34;99039.17;100585;1343;24302;-37
2022/10/15 09:02:47;;;;;;;30.20;15.90;;;;;;;14.77;98.42;99037.16;100649;1337;23221;-34
2022/10/15 09:05:19;;;;;;;26.90;19.20;;;;;;;14.92;97.14;99033.39;100629;1335;24357;-34
2022/10/15 09:07:48;;;;;;;24.90;17.30;;;;;;;15.00;96.55;99039.73;100650;1340;23109;-37
2022/10/15 09:10:17;;;;;;;24.70;18.50;;;;;;;15.07;95.68;99037.56;100688;1343;23089;-37
2022/10/15 09:12:48;;;;;;;26.30;16.30;;;;;;;15.11;95.31;99039.88;100645;1334;22520;-37
2022/10/15 09:15:16;;;;;;;26.50;17.90;;;;;;;15.26;94.58;99041.48;100604;1340;23064;-37
2022/10/15 09:17:43;;;;;;;26.40;15.20;;;;;;;15.39;93.21;99037.83;100668;1341;24282;-37
2022/10/15 09:20:16;;;;;;;32.50;18.60;;;;;;;15.44;91.63;99037.74;100457;1344;25280;-37
2022/10/15 09:22:42;;;;;;;24.90;16.70;;;;;;;15.45;91.55;99037.02;100669;1341;24306;-33
2022/10/15 09:25:14;;;;;;;25.30;14.80;;;;;;;15.47;91.54;99041.55;100557;1342;22517;-33
2022/10/15 09:27:40;;;;;;;26.00;17.70;;;;;;;15.47;91.88;99043.72;100655;1345;24369;-33
2022/10/15 09:30:15;;;;;;;30.10;18.60;;;;;;;15.50;91.90;99048.16;100672;1334;22504;-35
2022/10/15 09:32:46;;;;;;;20.60;14.20;;;;;;;15.48;91.41;99052.61;100708;1337;22478;-36
2022/10/15 09:35:15;;;;;;;29.80;19.40;;;;;;;15.48;92.15;99054.70;100443;1345;24327;-37
2022/10/15 09:37:46;;;;;;;30.60;19.30;;;;;;;15.54;91.73;99050.91;100681;1341;23040;-33
2022/10/15 09:40:18;;;;;;;23.90;14.90;;;;;;;15.55;91.04;99054.84;100692;1341;25196;-33
2022/10/15 09:42:44;;;;;;;25.60;14.30;;;;;;;15.52;91.94;99053.95;100681;1344;22908;-36
2022/10/15 09:45:11;;;;;;;21.10;15.30;;;;;;;15.58;91.80;99052.09;100644;1324;22887;-34
2022/10/15 09:47:39;;;;;;;21.50;16.10;;;;;;;15.60;91.70;99053.48;100519;1343;24765;-36
2022/10/15 09:50:06;;;;;;;19.60;16.50;;;;;;;15.70;90.95;99057.19;100633;1341;24299;-36
2022/10/15 09:52:35;;;;;;;23.90;15.40;;;;;;;15.80;90.29;99059.40;100634;1337;23016;-37
2022/10/15 09:55:05;;;;;;;25.50;18.40;;;;;;;15.81;90.12;99061.07;100670;1337;24485;-34
2022/10/15 09:57:32;;;;;;;32.60;19.40;;;;;;;15.81;90.32;99065.61;100635;1345;22748;-37
2022/10/15 10:00:00;;;;;;;21.10;14.80;;;;;;;15.94;90.20;99060.19;100639;1345;22631;-36
2022/10/15 10:02:25;;;;;;;26.50;15.00;;;;;;;16.03;89.77;99062.69;100687;1345;24319;-34
2022/10/15 10:04:51;;;;;;;23.30;15.40;;;;;;;16.11;89.51;99063.30;100716;1341;22872;-36
2022/10/15 10:07:24;;;;;;;19.00;13.30;;;;;;;16.16;88.38;99064.42;100699;1337;23235;-34
2022/10/15 10:09:53;;;;;;;17.80;13.90;;;;;;;16.34;89.11;99064.80;100671;1345;22881;-34
2022/10/15 10:12:21;;;;;;;17.10;14.60;;;;;;;16.55;88.39;99063.84;100619;1343;22872;-34
2022/10/15 10:14:53;;;;;;;18.50;10.70;;;;;;;16.72;87.53;99063.08;100668;1334;23230;-34
2022/10/15 10:17:20;;;;;;;19.40;13.80;;;;;;;16.84;86.51;99061.89;100676;1341;22745;-35
2022/10/15 10:20:07;;;;;;;32.00;15.70;;;;;;;16.87;85.93;99058.41;100615;1333;22713;-36
2022/10/15 10:22:39;;;;;;;19.10;14.00;;;;;;;16.95;85.47;99058.59;100699;1345;22929;-36
2022/10/15 10:25:21;;;;;;;23.80;17.00;;;;;;;17.14;84.80;99057.66;100632;1342;22748;-34
2022/10/15 10:27:49;;;;;;;20.40;15.10;;;;;;;17.17;83.67;99056.11;100644;1334;24871;-34
2022/10/15 10:30:15;;;;;;;19.40;13.50;;;;;;;17.16;83.53;99051.81;100665;1341;24311;-36
2022/10/15 10:32:42;;;;;;;18.40;13.80;;;;;;;17.27;82.61;99050.42;100590;1340;22711;-36
2022/10/15 10:35:16;;;;;;;20.00;15.90;;;;;;;17.33;82.66;99049.20;100681;1334;24477;-36
2022/10/15 10:37:42;;;;;;;18.10;14.10;;;;;;;17.48;79.24;99043.48;100637;1335;22770;-36
2022/10/15 10:40:14;;;;;;;20.80;14.80;;;;;;;17.36;79.13;99051.02;100610;1345;23109;-38
2022/10/15 10:42:40;;;;;;;16.20;14.50;;;;;;;17.39;79.12;99053.40;100708;1345;25400;-38
2022/10/15 10:45:14;;;;;;;24.30;11.10;;;;;;;17.34;78.46;99051.83;100629;1340;24309;-36
2022/10/15 10:47:40;;;;;;;20.00;15.50;;;;;;;17.29;78.06;99054.06;100612;1337;22724;-36
2022/10/15 10:50:13;;;;;;;28.20;13.60;;;;;;;17.13;77.84;99059.16;100663;1333;23209;-36
2022/10/15 10:52:39;;;;;;;23.00;13.40;;;;;;;17.10;78.49;99059.54;100659;1345;24302;-36
2022/10/15 10:55:06;;;;;;;19.60;13.80;;;;;;;17.09;78.98;99063.48;100635;1345;22526;-38
2022/10/15 10:57:35;;;;;;;19.20;15.70;;;;;;;16.99;78.64;99063.34;100662;1338;22884;-37
2022/10/15 11:00:03;;;;;;;14.80;10.70;;;;;;;16.89;78.87;99067.98;100699;1340;22977;-35
2022/10/15 11:02:28;;;;;;;18.80;14.20;;;;;;;16.89;79.02;99073.73;100634;1345;22761;-34
2022/10/15 11:04:54;;;;;;;15.60;13.60;;;;;;;16.82;79.32;99072.11;100686;1345;23337;-37
2022/10/15 11:07:21;;;;;;;20.10;13.00;;;;;;;16.73;79.44;99069.23;100713;1341;23123;-33
2022/10/15 11:09:52;;;;;;;19.60;12.80;;;;;;;16.70;79.21;99060.98;100604;1345;22885;-35
2022/10/15 11:12:18;;;;;;;25.10;12.10;;;;;;;16.69;80.04;99060.47;100683;1338;22744;-36
2022/10/15 11:14:50;;;;;;;15.00;12.40;;;;;;;16.78;79.55;99054.98;100558;1346;23109;-37